Time;durP1;ratioP1;P1;durP2;ratioP2;P2;SDS_P1;SDS_P2;PMS_P1;PMS_P2;Temp;Humidity;BMP_temperature;BMP_pressure;BME280_temperature;BME280_humidity;BME280_pressure;Samples;Min_cycle;Max_cycle;Signal;HPM_P1;HPM_P2
2022/10/11 00:01:17;;;;;;;16.35;3.08;;;;;;;;;;5013359;28;20411;-65
2022/10/11 00:03:43;;;;;;;17.10;2.17;;;;;;;;;;5013983;28;20433;-65
2022/10/11 00:06:09;;;;;;;12.50;2.47;;;;;;;;;;5031496;28;20059;-65
2022/10/11 00:08:35;;;;;;;14.07;2.00;;;;;;;;;;5012923;28;20110;-65
2022/10/11 00:11:02;;;;;;;10.32;2.42;;;;;;;;;;5043494;28;20132;-65
2022/10/11 00:13:28;;;;;;;14.00;2.22;;;;;;;;;;5033151;28;20048;-65
2022/10/11 00:15:55;;;;;;;11.63;2.70;;;;;;;;;;5032703;28;20210;-65
2022/10/11 00:18:21;;;;;;;17.85;2.65;;;;;;;;;;5032938;28;20045;-65
2022/10/11 00:20:48;;;;;;;13.18;2.10;;;;;;;;;;5033454;28;20049;-65
2022/10/11 00:23:14;;;;;;;17.30;2.30;;;;;;;;;;5032577;28;20521;-65
2022/10/11 00:25:40;;;;;;;17.15;2.38;;;;;;;;;;5033285;28;20072;-65
2022/10/11 00:28:06;;;;;;;14.63;2.15;;;;;;;;;;5050829;28;20041;-65
2022/10/11 00:30:32;;;;;;;10.38;2.13;;;;;;;;;;5050641;28;20048;-65
2022/10/11 00:32:58;;;;;;;13.23;2.63;;;;;;;;;;5033056;28;20072;-65
2022/10/11 00:35:25;;;;;;;15.38;2.63;;;;;;;;;;5050655;28;20407;-65
2022/10/11 00:37:51;;;;;;;14.15;2.17;;;;;;;;;;5050552;28;20032;-65
2022/10/11 00:40:18;;;;;;;9.65;2.00;;;;;;;;;;5050801;28;20041;-65
2022/10/11 00:42:45;;;;;;;11.55;2.08;;;;;;;;;;5050892;28;20080;-65
2022/10/11 00:45:40;;;;;;;11.43;2.05;;;;;;;;;;5032646;28;20107;-65
2022/10/11 00:48:10;;;;;;;8.70;1.80;;;;;;;;;;4979060;28;20054;-65
2022/10/11 00:50:37;;;;;;;12.02;1.88;;;;;;;;;;5050359;28;20088;-65
2022/10/11 00:53:09;;;;;;;9.15;1.73;;;;;;;;;;5050213;28;20052;-65
2022/10/11 00:55:38;;;;;;;11.43;2.10;;;;;;;;;;5050678;28;20075;-65
2022/10/11 00:58:04;;;;;;;13.30;2.13;;;;;;;;;;5050569;28;20033;-65
2022/10/11 01:00:30;;;;;;;8.88;1.85;;;;;;;;;;5050287;28;20068;-65
2022/10/11 01:02:56;;;;;;;14.10;2.50;;;;;;;;;;5050686;28;20044;-65
2022/10/11 01:05:23;;;;;;;10.18;2.63;;;;;;;;;;5050394;28;20156;-65
2022/10/11 01:07:50;;;;;;;9.50;2.38;;;;;;;;;;5050210;28;20094;-65
2022/10/11 01:10:16;;;;;;;10.80;2.00;;;;;;;;;;5043981;28;20049;-65
2022/10/11 01:12:52;;;;;;;11.00;2.13;;;;;;;;;;5030680;28;20487;-65
2022/10/11 01:15:25;;;;;;;10.52;2.17;;;;;;;;;;5030210;28;20049;-65
2022/10/11 01:17:51;;;;;;;13.55;2.40;;;;;;;;;;5030257;28;20041;-65
2022/10/11 01:20:20;;;;;;;9.50;2.40;;;;;;;;;;5030507;28;20087;-65
2022/10/11 01:23:04;;;;;;;16.10;2.50;;;;;;;;;;5029907;28;20045;-65
2022/10/11 01:25:38;;;;;;;9.80;2.45;;;;;;;;;;5012507;28;20045;-65
2022/10/11 01:28:16;;;;;;;14.27;2.10;;;;;;;;;;5030413;28;20046;-65
2022/10/11 01:30:42;;;;;;;12.45;1.95;;;;;;;;;;5029994;28;20123;-65
2022/10/11 01:33:11;;;;;;;13.23;2.25;;;;;;;;;;5030101;28;20046;-65
2022/10/11 01:35:37;;;;;;;16.92;2.50;;;;;;;;;;5030387;28;20046;-65
2022/10/11 01:38:22;;;;;;;12.40;1.98;;;;;;;;;;5029898;28;20364;-65
2022/10/11 01:40:50;;;;;;;12.55;2.42;;;;;;;;;;5030076;28;20050;-65
2022/10/11 01:43:17;;;;;;;9.63;1.83;;;;;;;;;;5012575;28;20480;-65
2022/10/11 01:45:44;;;;;;;10.98;2.00;;;;;;;;;;5029948;28;20037;-65
2022/10/11 01:48:12;;;;;;;10.27;2.33;;;;;;;;;;5012547;28;20061;-65
2022/10/11 01:50:46;;;;;;;13.45;2.38;;;;;;;;;;5029849;28;20083;-65
2022/10/11 01:53:29;;;;;;;11.43;1.70;;;;;;;;;;5029495;28;20072;-65
2022/10/11 01:56:00;;;;;;;28.00;2.72;;;;;;;;;;5030150;28;20129;-65
2022/10/11 01:58:25;;;;;;;5.25;2.00;;;;;;;;;;5011871;28;20061;-65
2022/10/11 02:01:08;;;;;;;7.38;1.95;;;;;;;;;;5030150;28;20522;-65
2022/10/11 02:03:37;;;;;;;9.35;1.95;;;;;;;;;;5030057;28;20072;-65
2022/10/11 02:06:07;;;;;;;10.80;1.75;;;;;;;;;;5029676;28;20045;-65
2022/10/11 02:08:51;;;;;;;6.82;1.90;;;;;;;;;;5011913;28;20072;-65
2022/10/11 02:11:36;;;;;;;11.80;1.92;;;;;;;;;;5044443;28;20063;-65
2022/10/11 02:14:10;;;;;;;13.80;2.08;;;;;;;;;;5049412;28;20045;-65
2022/10/11 02:16:43;;;;;;;6.38;1.80;;;;;;;;;;5049843;28;20041;-65
2022/10/11 02:19:12;;;;;;;16.15;2.45;;;;;;;;;;5053044;28;20037;-65
2022/10/11 02:21:39;;;;;;;10.63;1.75;;;;;;;;;;5034803;28;20037;-65
2022/10/11 02:24:09;;;;;;;13.98;2.20;;;;;;;;;;5053413;28;20029;-65
2022/10/11 02:26:36;;;;;;;11.32;1.95;;;;;;;;;;5053416;28;20068;-65
2022/10/11 02:29:03;;;;;;;14.65;2.17;;;;;;;;;;5052941;28;20095;-65
2022/10/11 02:31:30;;;;;;;6.15;1.70;;;;;;;;;;5053171;28;20041;-65
2022/10/11 02:34:05;;;;;;;10.27;1.80;;;;;;;;;;5053403;28;20120;-65
2022/10/11 02:36:42;;;;;;;10.27;2.08;;;;;;;;;;5052779;28;20652;-65
2022/10/11 02:39:13;;;;;;;11.20;2.10;;;;;;;;;;5053098;28;20043;-65
2022/10/11 02:41:41;;;;;;;13.77;2.33;;;;;;;;;;5035180;28;20045;-65
2022/10/11 02:44:11;;;;;;;13.82;2.30;;;;;;;;;;5034525;28;20074;-65
2022/10/11 02:46:37;;;;;;;13.43;2.65;;;;;;;;;;5053008;28;20041;-65
2022/10/11 02:49:04;;;;;;;8.98;1.77;;;;;;;;;;5052871;28;20053;-65
2022/10/11 02:51:30;;;;;;;11.38;2.13;;;;;;;;;;5034080;28;20055;-65
2022/10/11 02:53:56;;;;;;;10.65;2.25;;;;;;;;;;5034897;28;20064;-65
2022/10/11 02:56:22;;;;;;;9.00;2.17;;;;;;;;;;5052508;28;20045;-65
2022/10/11 02:58:48;;;;;;;8.85;2.00;;;;;;;;;;5052439;28;20094;-65
2022/10/11 03:01:15;;;;;;;11.02;1.65;;;;;;;;;;5052770;28;20037;-65
2022/10/11 03:03:41;;;;;;;14.68;2.00;;;;;;;;;;5052816;28;20438;-65
2022/10/11 03:06:07;;;;;;;8.07;1.80;;;;;;;;;;5052220;28;20107;-65
2022/10/11 03:08:33;;;;;;;12.82;1.83;;;;;;;;;;5052186;28;20037;-65
2022/10/11 03:10:59;;;;;;;7.05;1.80;;;;;;;;;;5022308;28;20610;-65
2022/10/11 03:13:25;;;;;;;9.82;2.20;;;;;;;;;;5032090;28;20312;-65
2022/10/11 03:15:52;;;;;;;9.32;1.60;;;;;;;;;;5032217;28;20056;-65
2022/10/11 03:18:18;;;;;;;7.40;1.65;;;;;;;;;;5032377;28;20029;-65
2022/10/11 03:20:44;;;;;;;10.48;1.98;;;;;;;;;;5031804;28;20045;-65
2022/10/11 03:23:11;;;;;;;9.80;2.15;;;;;;;;;;5032492;28;20041;-65
2022/10/11 03:25:37;;;;;;;9.30;1.40;;;;;;;;;;5032172;28;20049;-65
2022/10/11 03:28:03;;;;;;;8.20;1.58;;;;;;;;;;5031956;28;20045;-65
2022/10/11 03:30:29;;;;;;;7.07;1.92;;;;;;;;;;5031061;28;20387;-65
2022/10/11 03:32:55;;;;;;;8.75;2.10;;;;;;;;;;5032197;28;20053;-65
2022/10/11 03:35:21;;;;;;;13.07;1.95;;;;;;;;;;5031790;28;20160;-65
2022/10/11 03:37:47;;;;;;;6.55;1.70;;;;;;;;;;5032247;28;20041;-65
2022/10/11 03:40:13;;;;;;;5.60;1.25;;;;;;;;;;5031798;28;20073;-65
2022/10/11 03:42:39;;;;;;;7.93;1.55;;;;;;;;;;5031511;28;20084;-65
2022/10/11 03:45:07;;;;;;;8.20;1.85;;;;;;;;;;5014177;28;20049;-65
2022/10/11 03:47:37;;;;;;;9.13;1.63;;;;;;;;;;5031906;28;20054;-65
2022/10/11 03:50:04;;;;;;;5.30;1.30;;;;;;;;;;5031265;28;20144;-65
2022/10/11 03:52:30;;;;;;;14.15;1.70;;;;;;;;;;5031532;28;20034;-65
2022/10/11 03:54:56;;;;;;;7.88;1.48;;;;;;;;;;5031868;28;20068;-65
2022/10/11 03:57:22;;;;;;;4.93;1.38;;;;;;;;;;5013562;28;20041;-65
2022/10/11 03:59:48;;;;;;;4.65;1.67;;;;;;;;;;4997445;28;20044;-65
2022/10/11 04:02:14;;;;;;;7.22;1.40;;;;;;;;;;5031471;28;20037;-65
2022/10/11 04:04:40;;;;;;;7.97;1.30;;;;;;;;;;5013319;28;20049;-65
2022/10/11 04:07:06;;;;;;;5.28;1.17;;;;;;;;;;5013431;28;20041;-65
2022/10/11 04:09:32;;;;;;;5.72;1.48;;;;;;;;;;5013372;28;20044;-65
2022/10/11 04:11:58;;;;;;;5.78;1.35;;;;;;;;;;5050933;28;20126;-65
2022/10/11 04:14:24;;;;;;;3.25;1.20;;;;;;;;;;5033523;28;20419;-65
2022/10/11 04:16:51;;;;;;;8.00;1.67;;;;;;;;;;5033123;28;20053;-65
2022/10/11 04:19:17;;;;;;;3.28;1.10;;;;;;;;;;5050678;28;20574;-65
2022/10/11 04:21:43;;;;;;;8.82;1.80;;;;;;;;;;5033316;28;20120;-65
2022/10/11 04:24:10;;;;;;;8.77;1.48;;;;;;;;;;5033008;28;20053;-65
2022/10/11 04:26:36;;;;;;;5.95;1.48;;;;;;;;;;5050530;28;20450;-65
2022/10/11 04:29:03;;;;;;;7.45;1.23;;;;;;;;;;5033215;28;20053;-64
2022/10/11 04:31:29;;;;;;;5.72;1.17;;;;;;;;;;5050972;28;20099;-64
2022/10/11 04:33:56;;;;;;;6.75;1.38;;;;;;;;;;5032727;28;20048;-64
2022/10/11 04:36:22;;;;;;;6.85;1.58;;;;;;;;;;5050949;28;20076;-64
2022/10/11 04:38:48;;;;;;;6.45;1.30;;;;;;;;;;5050872;28;20037;-64
2022/10/11 04:41:15;;;;;;;6.35;1.25;;;;;;;;;;5050331;28;20349;-65
2022/10/11 04:43:41;;;;;;;6.43;1.50;;;;;;;;;;5050611;28;20044;-65
2022/10/11 04:46:07;;;;;;;7.38;1.30;;;;;;;;;;5032802;28;20044;-65
2022/10/11 04:48:34;;;;;;;5.15;1.30;;;;;;;;;;5032703;28;20103;-64
2022/10/11 04:51:00;;;;;;;5.43;1.27;;;;;;;;;;5050337;28;20041;-64
2022/10/11 04:53:26;;;;;;;5.30;1.65;;;;;;;;;;5050537;28;20049;-64
2022/10/11 04:55:59;;;;;;;6.40;1.63;;;;;;;;;;5050098;28;20041;-64
2022/10/11 04:58:26;;;;;;;8.05;1.83;;;;;;;;;;5050314;28;20036;-64
2022/10/11 05:00:52;;;;;;;7.57;2.03;;;;;;;;;;5032626;28;20125;-66
2022/10/11 05:03:18;;;;;;;6.25;1.63;;;;;;;;;;5032344;28;20083;-65
2022/10/11 05:05:44;;;;;;;7.90;2.05;;;;;;;;;;5032165;28;20053;-65
2022/10/11 05:08:10;;;;;;;11.10;2.05;;;;;;;;;;5044401;28;20079;-65
2022/10/11 05:10:36;;;;;;;6.00;1.48;;;;;;;;;;5050258;28;20053;-65
2022/10/11 05:13:02;;;;;;;16.58;2.00;;;;;;;;;;5025122;28;20056;-65
2022/10/11 05:15:28;;;;;;;10.90;2.20;;;;;;;;;;5050268;28;20668;-65
2022/10/11 05:17:54;;;;;;;10.35;2.55;;;;;;;;;;5032452;28;20041;-66
2022/10/11 05:20:20;;;;;;;8.05;2.63;;;;;;;;;;5049678;28;20041;-66
2022/10/11 05:22:46;;;;;;;4.25;1.50;;;;;;;;;;5032282;28;20095;-65
2022/10/11 05:25:13;;;;;;;4.95;1.80;;;;;;;;;;5050133;28;20037;-65
2022/10/11 05:27:39;;;;;;;7.25;1.60;;;;;;;;;;5049454;28;20082;-65
2022/10/11 05:30:05;;;;;;;4.93;1.10;;;;;;;;;;5050113;28;20103;-65
2022/10/11 05:32:31;;;;;;;10.73;2.50;;;;;;;;;;5031817;28;20411;-65
2022/10/11 05:34:57;;;;;;;4.65;1.65;;;;;;;;;;5031993;28;20037;-66
2022/10/11 05:37:23;;;;;;;6.18;2.00;;;;;;;;;;5031931;28;20040;-66
2022/10/11 05:39:49;;;;;;;8.88;2.40;;;;;;;;;;5031829;28;20083;-64
2022/10/11 05:42:15;;;;;;;6.30;1.88;;;;;;;;;;5049533;28;20040;-64
2022/10/11 05:44:41;;;;;;;7.40;2.10;;;;;;;;;;5049578;28;20399;-64
2022/10/11 05:47:07;;;;;;;10.20;2.60;;;;;;;;;;5050268;28;20041;-64
2022/10/11 05:49:33;;;;;;;8.63;2.40;;;;;;;;;;5049186;28;20041;-64
2022/10/11 05:51:59;;;;;;;7.43;2.08;;;;;;;;;;5049753;28;20131;-65
2022/10/11 05:54:28;;;;;;;7.80;2.08;;;;;;;;;;5053854;28;20041;-64
2022/10/11 05:56:54;;;;;;;9.50;2.45;;;;;;;;;;5041524;28;20051;-64
2022/10/11 05:59:20;;;;;;;9.18;2.40;;;;;;;;;;5055753;28;20040;-65
2022/10/11 06:01:46;;;;;;;12.57;2.30;;;;;;;;;;5055701;28;20116;-65
2022/10/11 06:04:13;;;;;;;10.55;2.72;;;;;;;;;;5054355;28;20056;-64
2022/10/11 06:06:39;;;;;;;8.95;2.38;;;;;;;;;;5036784;28;20124;-65
2022/10/11 06:09:06;;;;;;;8.93;2.83;;;;;;;;;;5056358;28;20044;-65
2022/10/11 06:11:32;;;;;;;7.32;2.40;;;;;;;;;;5052202;28;20061;-65
2022/10/11 06:13:58;;;;;;;6.68;2.13;;;;;;;;;;5052896;28;20080;-65
2022/10/11 06:16:24;;;;;;;11.07;2.80;;;;;;;;;;5053008;28;20041;-65
2022/10/11 06:18:54;;;;;;;8.27;2.08;;;;;;;;;;5034474;28;20045;-65
2022/10/11 06:21:20;;;;;;;15.20;2.42;;;;;;;;;;5051886;28;20091;-66
2022/10/11 06:23:50;;;;;;;11.32;2.88;;;;;;;;;;5034797;28;20120;-66
2022/10/11 06:26:17;;;;;;;10.38;2.72;;;;;;;;;;5050914;28;20095;-66
2022/10/11 06:28:43;;;;;;;7.07;2.30;;;;;;;;;;5052795;28;20037;-66
2022/10/11 06:31:10;;;;;;;9.15;2.33;;;;;;;;;;5034128;28;20488;-64
2022/10/11 06:33:36;;;;;;;10.52;2.58;;;;;;;;;;5037089;28;20072;-63
2022/10/11 06:36:04;;;;;;;11.63;2.80;;;;;;;;;;5062099;28;20492;-63
2022/10/11 06:38:30;;;;;;;12.20;2.92;;;;;;;;;;5053239;28;20091;-63
2022/10/11 06:40:56;;;;;;;8.98;2.40;;;;;;;;;;5025805;28;20128;-65
2022/10/11 06:43:24;;;;;;;11.38;3.08;;;;;;;;;;5052361;28;20044;-65
2022/10/11 06:45:50;;;;;;;9.10;3.08;;;;;;;;;;5033503;28;20514;-66
2022/10/11 06:48:16;;;;;;;13.07;3.50;;;;;;;;;;5032456;28;20076;-64
2022/10/11 06:50:42;;;;;;;11.43;3.20;;;;;;;;;;5053714;28;20064;-65
2022/10/11 06:53:08;;;;;;;13.60;3.30;;;;;;;;;;5061258;28;20045;-67
2022/10/11 06:55:34;;;;;;;16.00;2.90;;;;;;;;;;5039041;28;20063;-64
2022/10/11 06:58:00;;;;;;;15.13;3.20;;;;;;;;;;5058045;28;20091;-62
2022/10/11 07:00:26;;;;;;;14.98;3.58;;;;;;;;;;5048421;28;20086;-64
2022/10/11 07:02:52;;;;;;;12.77;3.28;;;;;;;;;;5066463;28;20568;-62
2022/10/11 07:05:18;;;;;;;11.45;4.00;;;;;;;;;;5058999;28;20037;-67
2022/10/11 07:07:44;;;;;;;12.43;3.60;;;;;;;;;;5041026;28;20078;-66
2022/10/11 07:10:11;;;;;;;14.50;3.88;;;;;;;;;;5032805;28;20058;-66
2022/10/11 07:12:37;;;;;;;15.27;3.90;;;;;;;;;;5025240;28;20056;-65
2022/10/11 07:15:03;;;;;;;8.77;3.33;;;;;;;;;;5032231;28;20080;-63
2022/10/11 07:17:29;;;;;;;12.80;3.40;;;;;;;;;;5042042;28;20049;-63
2022/10/11 07:19:55;;;;;;;11.60;4.00;;;;;;;;;;5045015;28;20041;-65
2022/10/11 07:22:21;;;;;;;16.67;4.28;;;;;;;;;;5018209;28;20041;-65
2022/10/11 07:24:48;;;;;;;11.82;3.78;;;;;;;;;;5013742;28;20037;-65
2022/10/11 07:27:14;;;;;;;10.20;3.30;;;;;;;;;;5032161;28;20038;-66
2022/10/11 07:29:40;;;;;;;11.55;3.72;;;;;;;;;;5020627;28;20075;-67
2022/10/11 07:32:06;;;;;;;11.55;3.50;;;;;;;;;;5042690;28;20167;-66
2022/10/11 07:34:32;;;;;;;16.88;3.47;;;;;;;;;;5035932;28;20048;-66
2022/10/11 07:36:58;;;;;;;18.02;3.90;;;;;;;;;;5043436;28;20428;-65
2022/10/11 07:39:24;;;;;;;15.00;4.38;;;;;;;;;;5033788;28;20048;-65
2022/10/11 07:41:50;;;;;;;13.68;4.20;;;;;;;;;;5040261;28;20080;-63
2022/10/11 07:44:16;;;;;;;14.02;4.03;;;;;;;;;;5039056;28;20064;-64
2022/10/11 07:46:42;;;;;;;18.65;4.53;;;;;;;;;;5043569;28;20048;-64
2022/10/11 07:49:08;;;;;;;14.38;3.78;;;;;;;;;;5045644;28;20739;-64
2022/10/11 07:51:34;;;;;;;14.27;3.45;;;;;;;;;;5035098;28;20080;-64
2022/10/11 07:54:02;;;;;;;19.38;4.55;;;;;;;;;;5032729;28;20029;-64
2022/10/11 07:56:28;;;;;;;14.10;3.58;;;;;;;;;;5040398;28;20539;-67
2022/10/11 07:58:56;;;;;;;11.60;4.25;;;;;;;;;;5015624;28;20125;-64
2022/10/11 08:01:22;;;;;;;21.92;4.10;;;;;;;;;;5040047;28;20033;-65
2022/10/11 08:03:48;;;;;;;14.52;4.30;;;;;;;;;;5030298;28;20049;-65
2022/10/11 08:06:16;;;;;;;15.25;3.85;;;;;;;;;;5030689;28;20037;-65
2022/10/11 08:08:42;;;;;;;13.45;4.05;;;;;;;;;;5037605;28;20080;-67
2022/10/11 08:11:08;;;;;;;19.55;3.97;;;;;;;;;;5026383;28;20191;-64
2022/10/11 08:13:34;;;;;;;14.52;3.53;;;;;;;;;;5063299;28;20088;-64
2022/10/11 08:16:00;;;;;;;20.27;4.20;;;;;;;;;;5044272;28;20406;-64
2022/10/11 08:18:27;;;;;;;15.80;4.03;;;;;;;;;;5050944;28;20037;-64
2022/10/11 08:20:53;;;;;;;18.25;4.05;;;;;;;;;;5050069;28;20077;-66
2022/10/11 08:23:19;;;;;;;14.93;3.58;;;;;;;;;;5050219;28;20041;-65
2022/10/11 08:25:46;;;;;;;12.60;3.90;;;;;;;;;;5056797;28;20538;-64
2022/10/11 08:28:16;;;;;;;16.52;3.50;;;;;;;;;;5050460;28;20063;-64
2022/10/11 08:30:54;;;;;;;13.00;3.55;;;;;;;;;;5050513;28;20059;-64
2022/10/11 08:33:21;;;;;;;10.98;3.60;;;;;;;;;;5050194;28;20470;-63
2022/10/11 08:35:47;;;;;;;14.27;3.33;;;;;;;;;;5049737;28;20041;-65
2022/10/11 08:38:13;;;;;;;15.20;3.60;;;;;;;;;;5059796;28;20055;-64
2022/10/11 08:40:50;;;;;;;14.80;3.55;;;;;;;;;;5040020;28;20430;-63
2022/10/11 08:43:29;;;;;;;13.93;3.10;;;;;;;;;;5050592;28;20079;-64
2022/10/11 08:45:56;;;;;;;14.07;3.60;;;;;;;;;;5061825;28;20434;-65
2022/10/11 08:48:29;;;;;;;12.63;3.17;;;;;;;;;;5031408;28;20428;-65
2022/10/11 08:50:56;;;;;;;14.25;3.42;;;;;;;;;;5048724;28;20040;-67
2022/10/11 08:53:40;;;;;;;13.95;3.55;;;;;;;;;;5047462;28;20033;-67
2022/10/11 08:56:06;;;;;;;12.63;3.28;;;;;;;;;;5047294;28;20107;-67
2022/10/11 08:58:43;;;;;;;16.17;3.00;;;;;;;;;;5042970;28;20036;-66
2022/10/11 09:01:13;;;;;;;12.68;2.85;;;;;;;;;;5045304;28;20045;-66
2022/10/11 09:03:44;;;;;;;16.17;3.22;;;;;;;;;;5043947;28;21159;-67
2022/10/11 09:06:13;;;;;;;14.77;3.55;;;;;;;;;;5054024;28;20049;-65
2022/10/11 09:09:05;;;;;;;13.20;2.55;;;;;;;;;;5048253;28;20067;-64
2022/10/11 09:11:46;;;;;;;14.23;2.80;;;;;;;;;;5001076;28;20061;-65
2022/10/11 09:14:12;;;;;;;11.50;2.42;;;;;;;;;;5039811;28;20056;-66
2022/10/11 09:16:57;;;;;;;12.15;2.67;;;;;;;;;;5041503;28;20036;-66
2022/10/11 09:19:23;;;;;;;13.38;2.65;;;;;;;;;;5048463;28;20060;-64
2022/10/11 09:22:06;;;;;;;11.75;2.80;;;;;;;;;;5043170;28;20470;-64
2022/10/11 09:24:44;;;;;;;16.90;2.95;;;;;;;;;;5051359;28;20037;-64
2022/10/11 09:27:23;;;;;;;13.85;2.60;;;;;;;;;;5049604;28;20049;-66
2022/10/11 09:30:15;;;;;;;12.75;2.55;;;;;;;;;;5057072;28;20038;-64
2022/10/11 09:32:44;;;;;;;12.60;2.90;;;;;;;;;;5057650;28;20139;-63
2022/10/11 09:35:12;;;;;;;16.98;3.25;;;;;;;;;;5056199;28;20396;-64
2022/10/11 09:37:46;;;;;;;13.63;2.88;;;;;;;;;;5056141;28;20124;-63
2022/10/11 09:40:22;;;;;;;13.23;2.80;;;;;;;;;;5067141;28;20491;-65
2022/10/11 09:42:48;;;;;;;13.63;2.90;;;;;;;;;;5059458;28;20174;-64
2022/10/11 09:45:18;;;;;;;15.55;2.45;;;;;;;;;;5054188;28;21262;-65
2022/10/11 09:47:45;;;;;;;13.43;2.75;;;;;;;;;;5021429;28;20048;-65
2022/10/11 09:50:15;;;;;;;10.98;2.45;;;;;;;;;;5058943;28;20449;-64
2022/10/11 09:52:47;;;;;;;13.13;2.15;;;;;;;;;;5060757;28;20048;-65
2022/10/11 09:55:13;;;;;;;;;;;;;;;;;;5052443;28;20186;-66
2022/10/11 09:57:40;;;;;;;11.50;2.22;;;;;;;;;;5021028;28;19994;-65
2022/10/11 10:00:11;;;;;;;11.50;2.72;;;;;;;;;;5046498;28;20049;-67
2022/10/11 10:02:42;;;;;;;12.77;2.00;;;;;;;;;;5048383;28;20044;-66
2022/10/11 10:05:08;;;;;;;16.35;3.00;;;;;;;;;;5055649;28;20909;-67
2022/10/11 10:07:34;;;;;;;11.65;2.63;;;;;;;;;;5071910;28;20037;-66
2022/10/11 10:10:20;;;;;;;15.57;2.60;;;;;;;;;;5052731;28;20041;-65
2022/10/11 10:12:52;;;;;;;15.20;2.47;;;;;;;;;;5046317;28;20056;-63
2022/10/11 10:15:19;;;;;;;13.68;2.20;;;;;;;;;;5051760;28;20052;-64
2022/10/11 10:17:52;;;;;;;12.23;2.40;;;;;;;;;;5055570;28;20035;-66
2022/10/11 10:20:23;;;;;;;16.13;2.15;;;;;;;;;;5054631;28;20040;-64
2022/10/11 10:22:49;;;;;;;13.75;2.38;;;;;;;;;;5040633;28;20048;-68
2022/10/11 10:25:24;;;;;;;14.35;2.30;;;;;;;;;;5033120;28;20036;-68
2022/10/11 10:28:01;;;;;;;10.48;2.50;;;;;;;;;;5052372;28;20356;-67
2022/10/11 10:30:28;;;;;;;12.48;1.90;;;;;;;;;;5053917;28;20036;-64
2022/10/11 10:32:56;;;;;;;19.15;3.17;;;;;;;;;;5060598;28;20900;-66
2022/10/11 10:35:33;;;;;;;15.93;2.88;;;;;;;;;;5068478;28;20044;-64
2022/10/11 10:38:03;;;;;;;15.40;3.13;;;;;;;;;;5051818;28;20124;-64
2022/10/11 10:40:35;;;;;;;19.77;3.33;;;;;;;;;;5063833;28;20079;-63
2022/10/11 10:43:01;;;;;;;12.93;2.00;;;;;;;;;;5051044;28;20063;-64
2022/10/11 10:45:36;;;;;;;16.00;3.20;;;;;;;;;;5016739;28;20088;-64
2022/10/11 10:48:02;;;;;;;16.33;1.98;;;;;;;;;;5034093;28;20084;-64
2022/10/11 10:51:07;;;;;;;12.23;2.17;;;;;;;;;;5034325;28;20572;-64
2022/10/11 10:53:33;;;;;;;10.25;2.17;;;;;;;;;;4970289;28;20106;-64
2022/10/11 10:56:02;;;;;;;13.90;2.20;;;;;;;;;;4990393;28;20105;-64
2022/10/11 10:58:36;;;;;;;18.08;2.25;;;;;;;;;;5014993;28;20041;-64
2022/10/11 11:01:10;;;;;;;8.07;2.10;;;;;;;;;;5051852;28;20037;-64
2022/10/11 11:03:54;;;;;;;13.50;2.03;;;;;;;;;;5052578;28;20067;-64
2022/10/11 11:06:26;;;;;;;18.05;2.95;;;;;;;;;;5047727;28;20124;-64
2022/10/11 11:09:11;;;;;;;13.75;2.42;;;;;;;;;;5059192;28;20032;-64
2022/10/11 11:11:42;;;;;;;14.57;2.35;;;;;;;;;;5051342;28;20052;-64
2022/10/11 11:14:08;;;;;;;14.27;2.70;;;;;;;;;;5050997;28;20056;-68
2022/10/11 11:16:41;;;;;;;16.40;2.22;;;;;;;;;;5051407;28;20114;-65
2022/10/11 11:19:26;;;;;;;12.13;2.15;;;;;;;;;;5051261;28;20045;-66
2022/10/11 11:22:06;;;;;;;9.05;1.98;;;;;;;;;;5035625;28;20088;-67
2022/10/11 11:24:32;;;;;;;14.98;2.45;;;;;;;;;;5053417;28;20066;-66
2022/10/11 11:27:06;;;;;;;10.65;1.90;;;;;;;;;;5049875;28;20116;-66
2022/10/11 11:29:32;;;;;;;12.25;2.28;;;;;;;;;;5051133;28;20068;-66
2022/10/11 11:32:04;;;;;;;11.82;1.83;;;;;;;;;;5033303;28;20071;-67
2022/10/11 11:34:38;;;;;;;11.40;1.98;;;;;;;;;;5033401;28;20055;-66
2022/10/11 11:37:06;;;;;;;12.43;1.95;;;;;;;;;;5032671;28;20048;-65
2022/10/11 11:39:35;;;;;;;12.23;1.88;;;;;;;;;;5067482;28;20041;-65
2022/10/11 11:42:05;;;;;;;15.93;2.53;;;;;;;;;;5052547;28;20036;-66
2022/10/11 11:44:32;;;;;;;8.55;2.53;;;;;;;;;;5048318;28;20450;-65
2022/10/11 11:47:16;;;;;;;15.55;2.17;;;;;;;;;;5050956;28;20037;-64
2022/10/11 11:49:45;;;;;;;10.43;2.08;;;;;;;;;;5031832;28;20572;-67
2022/10/11 11:52:15;;;;;;;11.18;2.20;;;;;;;;;;5050812;28;20165;-67
2022/10/11 11:54:49;;;;;;;10.35;1.92;;;;;;;;;;5033227;28;20715;-66
2022/10/11 11:57:21;;;;;;;12.85;1.92;;;;;;;;;;5061533;28;20620;-67
2022/10/11 11:59:51;;;;;;;13.50;2.00;;;;;;;;;;5053146;28;20116;-66
2022/10/11 12:02:21;;;;;;;14.48;2.40;;;;;;;;;;5050518;28;20051;-66
2022/10/11 12:04:48;;;;;;;13.05;1.77;;;;;;;;;;5055342;28;20149;-66
2022/10/11 12:07:15;;;;;;;12.45;2.33;;;;;;;;;;5049981;28;20102;-65
2022/10/11 12:09:43;;;;;;;11.38;1.88;;;;;;;;;;5057720;28;20044;-65
2022/10/11 12:12:25;;;;;;;10.07;1.92;;;;;;;;;;5107806;27;20441;-63
2022/10/11 12:14:52;;;;;;;9.23;2.30;;;;;;;;;;5107525;28;20039;-63
2022/10/11 12:17:20;;;;;;;10.50;2.20;;;;;;;;;;5107945;28;20065;-64
2022/10/11 12:20:15;;;;;;;9.95;1.88;;;;;;;;;;5107931;28;20038;-63
2022/10/11 12:22:53;;;;;;;15.60;2.58;;;;;;;;;;5095869;28;20130;-63
2022/10/11 12:25:22;;;;;;;13.60;2.00;;;;;;;;;;5107610;28;20378;-67
2022/10/11 12:27:50;;;;;;;10.20;1.60;;;;;;;;;;5105796;28;20615;-67
2022/10/11 12:30:35;;;;;;;11.90;2.17;;;;;;;;;;5106725;28;20047;-67
2022/10/11 12:33:20;;;;;;;11.02;1.88;;;;;;;;;;5107120;28;20031;-68
2022/10/11 12:35:52;;;;;;;10.43;1.73;;;;;;;;;;5103879;28;20040;-68
2022/10/11 12:38:20;;;;;;;11.98;2.20;;;;;;;;;;5105368;28;20072;-67
2022/10/11 12:40:47;;;;;;;10.85;1.95;;;;;;;;;;5105882;28;20423;-67
2022/10/11 12:43:16;;;;;;;9.95;1.60;;;;;;;;;;5106915;28;20047;-66
2022/10/11 12:45:46;;;;;;;8.90;1.70;;;;;;;;;;5106770;28;20064;-66
2022/10/11 12:48:15;;;;;;;14.13;2.00;;;;;;;;;;5105394;28;20108;-66
2022/10/11 12:50:41;;;;;;;12.40;2.40;;;;;;;;;;5104684;28;20040;-66
2022/10/11 12:53:26;;;;;;;11.43;1.98;;;;;;;;;;5106392;28;20538;-65
2022/10/11 12:55:52;;;;;;;11.65;1.70;;;;;;;;;;5107087;28;20046;-64
2022/10/11 12:58:26;;;;;;;11.43;2.05;;;;;;;;;;5106838;28;20043;-66
2022/10/11 13:00:55;;;;;;;10.63;1.70;;;;;;;;;;5107055;28;20036;-67
2022/10/11 13:03:36;;;;;;;15.50;1.98;;;;;;;;;;5107034;28;20039;-67
2022/10/11 13:06:14;;;;;;;9.82;2.13;;;;;;;;;;5093298;28;20528;-66
2022/10/11 13:08:42;;;;;;;12.73;2.10;;;;;;;;;;5086820;28;20040;-66
2022/10/11 13:11:09;;;;;;;16.85;2.25;;;;;;;;;;5084716;28;20399;-66
2022/10/11 13:13:40;;;;;;;6.38;2.10;;;;;;;;;;5085911;28;20416;-67
2022/10/11 13:16:09;;;;;;;10.57;2.00;;;;;;;;;;5087203;28;20028;-67
2022/10/11 13:18:35;;;;;;;9.52;1.77;;;;;;;;;;5086302;28;20067;-67
2022/10/11 13:21:01;;;;;;;9.88;1.90;;;;;;;;;;5085810;28;20072;-68
2022/10/11 13:23:28;;;;;;;8.23;2.00;;;;;;;;;;5103488;28;20051;-66
2022/10/11 13:25:55;;;;;;;10.18;1.77;;;;;;;;;;5072713;28;20137;-67
2022/10/11 13:28:22;;;;;;;10.95;1.90;;;;;;;;;;5105254;28;20502;-67
2022/10/11 13:30:50;;;;;;;11.07;2.13;;;;;;;;;;5073151;28;20151;-67
2022/10/11 13:33:22;;;;;;;9.48;2.03;;;;;;;;;;5072978;28;20115;-68
2022/10/11 13:35:49;;;;;;;8.95;1.52;;;;;;;;;;5088410;28;20094;-67
2022/10/11 13:38:27;;;;;;;14.75;4.13;;;;;;;;;;5069729;28;20044;-65
2022/10/11 13:40:54;;;;;;;9.57;1.45;;;;;;;;;;5070808;28;20040;-66
2022/10/11 13:43:23;;;;;;;10.18;2.03;;;;;;;;;;5072546;28;20438;-67
2022/10/11 13:45:49;;;;;;;11.73;1.90;;;;;;;;;;5072151;28;20041;-68
2022/10/11 13:48:16;;;;;;;11.48;2.40;;;;;;;;;;5072696;28;20076;-70
2022/10/11 13:50:49;;;;;;;11.90;2.17;;;;;;;;;;5070514;28;20425;-69
2022/10/11 13:53:15;;;;;;;8.82;1.60;;;;;;;;;;5071195;28;20044;-67
2022/10/11 13:55:43;;;;;;;8.73;1.55;;;;;;;;;;5072696;28;20082;-66
2022/10/11 13:58:10;;;;;;;9.85;1.95;;;;;;;;;;5072173;28;20048;-68
2022/10/11 14:00:38;;;;;;;7.28;1.48;;;;;;;;;;5072491;28;20463;-69
2022/10/11 14:03:23;;;;;;;9.45;1.55;;;;;;;;;;5072555;28;20059;-65
2022/10/11 14:05:54;;;;;;;13.57;2.38;;;;;;;;;;5070645;28;20052;-66
2022/10/11 14:08:23;;;;;;;10.48;1.63;;;;;;;;;;5072461;28;20119;-66
2022/10/11 14:10:50;;;;;;;7.93;1.60;;;;;;;;;;5070512;28;20470;-65
2022/10/11 14:13:31;;;;;;;12.77;2.30;;;;;;;;;;5070547;28;20147;-67
2022/10/11 14:15:59;;;;;;;4.95;1.30;;;;;;;;;;5072478;28;20492;-63
2022/10/11 14:18:34;;;;;;;12.57;1.50;;;;;;;;;;5071880;28;20040;-65
2022/10/11 14:21:18;;;;;;;5.05;1.35;;;;;;;;;;5070896;28;20032;-66
2022/10/11 14:24:05;;;;;;;10.00;1.67;;;;;;;;;;5072051;28;20121;-66
2022/10/11 14:26:38;;;;;;;9.77;1.50;;;;;;;;;;5071044;28;20037;-67
2022/10/11 14:29:12;;;;;;;9.48;1.30;;;;;;;;;;5070260;28;20127;-66
2022/10/11 14:31:38;;;;;;;7.05;1.33;;;;;;;;;;5071978;28;20402;-67
2022/10/11 14:34:04;;;;;;;4.65;1.15;;;;;;;;;;5069013;28;20036;-66
2022/10/11 14:36:30;;;;;;;11.27;1.70;;;;;;;;;;5071830;28;20459;-68
2022/10/11 14:38:56;;;;;;;8.25;1.50;;;;;;;;;;5070206;28;20062;-67
2022/10/11 14:41:23;;;;;;;7.38;1.30;;;;;;;;;;5069893;28;20048;-67
2022/10/11 14:43:49;;;;;;;9.68;1.60;;;;;;;;;;5070219;28;20046;-64
2022/10/11 14:46:25;;;;;;;10.45;1.77;;;;;;;;;;5071708;28;20123;-65
2022/10/11 14:48:52;;;;;;;7.63;1.30;;;;;;;;;;5071085;28;20119;-66